Terminal Aerodrome Forecast
Issued by NWS

Home | Current Version | Previous Version | Text Only | Print | Product List | Glossary On
Versions: 1 2 3 4 5 6 7 8 9 10 11 12 13 14 15 16 17 18 19 20 21 22 23
000
FTUS44 KTSA 271700
TAFMLC
TAF
KMLC 271720Z 2718/2818 22004KT P6SM VCTS BKN050CB
      TEMPO 2718/2721 4SM TSRA BR BKN030CB
     FM272100 21006KT P6SM SCT050 BKN250
     FM280300 15003KT P6SM VCTS SCT040CB BKN100
     FM281400 20010KT P6SM SCT050 BKN250 PROB30 2814/2818 5SM -TSRA
      BR BKN050CB=

USA.gov is the U.S. government's official web portal to all federal, state and local government web resources and services.